createdAt,value
2022-09-26T00:00:33.859Z,2.13
2022-09-26T00:02:45.009Z,2.20
2022-09-26T00:04:47.563Z,2.58
2022-09-26T00:06:53.749Z,2.38
2022-09-26T00:08:58.509Z,2.38
2022-09-26T00:11:03.143Z,2.33
2022-09-26T00:13:06.220Z,2.33
2022-09-26T00:15:11.964Z,2.30
2022-09-26T00:17:14.372Z,2.30
2022-09-26T00:19:17.568Z,2.30
2022-09-26T00:21:20.713Z,2.67
2022-09-26T00:23:23.115Z,2.17
2022-09-26T00:25:27.110Z,2.10
2022-09-26T00:27:29.495Z,2.53
2022-09-26T00:29:36.345Z,2.17
2022-09-26T00:31:45.725Z,2.20
2022-09-26T00:33:48.100Z,1.88
2022-09-26T00:35:51.290Z,2.20
2022-09-26T00:37:54.333Z,2.15
2022-09-26T00:39:56.605Z,2.20
2022-09-26T00:41:58.972Z,2.25
2022-09-26T00:44:01.705Z,2.08
2022-09-26T00:46:13.470Z,2.00
2022-09-26T00:48:22.493Z,2.30
2022-09-26T00:50:28.132Z,1.92
2022-09-26T00:52:34.459Z,2.38
2022-09-26T00:54:40.069Z,2.15
2022-09-26T00:56:44.689Z,2.17
2022-09-26T00:58:53.511Z,2.20
2022-09-26T01:00:56.911Z,2.20
2022-09-26T01:03:02.321Z,2.13
2022-09-26T01:05:10.875Z,1.95
2022-09-26T01:07:18.042Z,2.10
2022-09-26T01:09:22.730Z,2.22
2022-09-26T01:11:25.101Z,2.20
2022-09-26T01:13:27.840Z,2.28
2022-09-26T01:15:31.470Z,2.70
2022-09-26T01:17:34.074Z,2.00
2022-09-26T01:19:43.573Z,2.17
2022-09-26T01:22:11.961Z,2.40
2022-09-26T01:24:40.166Z,2.17
2022-09-26T01:27:10.691Z,2.30
2022-09-26T01:29:57.312Z,2.25
2022-09-26T01:32:25.938Z,2.20
2022-09-26T01:34:36.371Z,2.17
2022-09-26T01:37:02.253Z,2.30
2022-09-26T01:39:21.124Z,2.28
2022-09-26T01:41:34.163Z,2.72
2022-09-26T01:43:42.259Z,2.20
2022-09-26T01:45:58.521Z,2.33
2022-09-26T01:48:07.344Z,2.58
2022-09-26T01:50:21.391Z,2.50
2022-09-26T01:52:29.495Z,2.47
2022-09-26T01:54:43.461Z,2.80
2022-09-26T01:56:48.928Z,2.50
2022-09-26T01:58:57.722Z,3.00
2022-09-26T02:01:07.899Z,3.08
2022-09-26T02:03:13.480Z,2.60
2022-09-26T02:05:22.682Z,2.33
2022-09-26T02:07:36.237Z,2.90
2022-09-26T02:09:42.737Z,2.70
2022-09-26T02:11:49.285Z,2.72
2022-09-26T02:13:56.516Z,2.97
2022-09-26T02:16:07.157Z,2.78
2022-09-26T02:18:17.266Z,3.00
2022-09-26T02:20:25.807Z,2.60
2022-09-26T02:22:31.857Z,2.80
2022-09-26T02:24:34.174Z,2.78
2022-09-26T02:26:36.494Z,3.00
2022-09-26T02:28:38.910Z,3.03
2022-09-26T02:30:44.459Z,2.80
2022-09-26T02:32:50.768Z,2.88
2022-09-26T02:34:53.171Z,3.20
2022-09-26T02:36:57.591Z,3.38
2022-09-26T02:39:00.100Z,3.05
2022-09-26T02:41:14.960Z,3.35
2022-09-26T02:43:52.080Z,3.08
2022-09-26T02:46:03.632Z,3.00
2022-09-26T02:48:27.846Z,3.00
2022-09-26T02:50:48.033Z,3.10
2022-09-26T02:53:04.734Z,3.42
2022-09-26T02:55:15.169Z,3.15
2022-09-26T02:57:32.954Z,3.03
2022-09-26T02:59:44.654Z,3.15
2022-09-26T03:01:52.871Z,3.65
2022-09-26T03:04:02.864Z,3.08
2022-09-26T03:06:10.094Z,3.50
2022-09-26T03:08:16.922Z,3.38
2022-09-26T03:10:20.635Z,3.08
2022-09-26T03:12:25.397Z,3.05
2022-09-26T03:14:29.567Z,3.03
2022-09-26T03:16:36.956Z,3.20
2022-09-26T03:18:42.340Z,3.05
2022-09-26T03:20:51.179Z,3.15
2022-09-26T03:22:55.802Z,3.22
2022-09-26T03:24:59.480Z,3.92
2022-09-26T03:27:05.143Z,3.70
2022-09-26T03:29:07.620Z,3.50
2022-09-26T03:31:10.175Z,3.30
2022-09-26T03:33:12.432Z,3.65
2022-09-26T03:35:15.213Z,3.60
2022-09-26T03:37:20.146Z,3.65
2022-09-26T03:39:22.814Z,4.22
2022-09-26T03:41:25.905Z,4.20
2022-09-26T03:43:28.390Z,4.38
2022-09-26T03:45:36.513Z,4.05
2022-09-26T03:47:38.886Z,4.28
2022-09-26T03:49:41.302Z,3.88
2022-09-26T03:51:44.391Z,4.30
2022-09-26T03:53:50.573Z,4.78
2022-09-26T03:55:52.774Z,4.65
2022-09-26T03:57:55.374Z,4.68
2022-09-26T03:59:57.839Z,4.97
2022-09-26T04:02:00.667Z,5.05
2022-09-26T04:04:03.153Z,5.63
2022-09-26T04:06:08.577Z,4.90
2022-09-26T04:08:10.866Z,4.80
2022-09-26T04:10:17.168Z,5.00
2022-09-26T04:12:20.602Z,5.15
2022-09-26T04:14:23.030Z,5.63
2022-09-26T04:16:25.615Z,5.45
2022-09-26T04:18:28.523Z,5.28
2022-09-26T04:20:31.889Z,5.82
2022-09-26T04:22:34.302Z,5.50
2022-09-26T04:24:36.931Z,5.07
2022-09-26T04:26:44.399Z,6.20
2022-09-26T04:28:51.404Z,6.07
2022-09-26T04:30:57.746Z,5.63
2022-09-26T04:33:00.140Z,5.90
2022-09-26T04:35:02.504Z,5.47
2022-09-26T04:37:05.273Z,5.38
2022-09-26T04:39:07.774Z,5.53
2022-09-26T04:41:11.829Z,4.60
2022-09-26T04:43:19.783Z,4.75
2022-09-26T04:45:23.220Z,5.05
2022-09-26T04:47:29.180Z,5.40
2022-09-26T04:49:31.501Z,4.60
2022-09-26T04:51:33.828Z,5.28
2022-09-26T04:53:37.439Z,5.47
2022-09-26T04:55:44.750Z,4.68
2022-09-26T04:57:49.466Z,5.18
2022-09-26T04:59:54.786Z,5.35
2022-09-26T05:02:09.653Z,4.80
2022-09-26T05:04:13.024Z,5.03
2022-09-26T05:06:17.863Z,5.13
2022-09-26T05:08:20.227Z,5.13
2022-09-26T05:10:24.116Z,4.68
2022-09-26T05:12:27.136Z,4.82
2022-09-26T05:14:30.537Z,5.28
2022-09-26T05:16:35.639Z,5.23
2022-09-26T05:18:39.247Z,5.05
2022-09-26T05:20:46.516Z,5.32
2022-09-26T05:22:48.893Z,5.57
2022-09-26T05:25:09.808Z,5.05
2022-09-26T05:27:18.179Z,5.10
2022-09-26T05:29:21.764Z,5.78
2022-09-26T05:31:29.465Z,5.10
2022-09-26T05:33:40.505Z,5.80
2022-09-26T05:35:48.810Z,5.72
2022-09-26T05:37:58.856Z,5.53
2022-09-26T05:40:24.787Z,6.07
2022-09-26T05:42:27.130Z,5.75
2022-09-26T05:44:31.922Z,5.90
2022-09-26T05:46:35.653Z,5.70
2022-09-26T05:48:46.472Z,5.82
2022-09-26T05:50:49.439Z,5.53
2022-09-26T05:52:53.908Z,6.30
2022-09-26T05:54:56.595Z,5.80
2022-09-26T05:56:58.943Z,5.40
2022-09-26T05:59:03.309Z,6.22
2022-09-26T06:03:09.116Z,5.43
2022-09-26T06:05:14.478Z,5.55
2022-09-26T06:07:17.139Z,5.80
2022-09-26T06:09:19.587Z,5.53
2022-09-26T06:11:27.545Z,5.95
2022-09-26T06:13:30.821Z,5.20
2022-09-26T06:15:33.575Z,5.28
2022-09-26T06:17:36.537Z,5.47
2022-09-26T06:19:40.139Z,5.57
2022-09-26T06:21:45.291Z,5.60
2022-09-26T06:23:59.702Z,5.57
2022-09-26T06:26:03.402Z,5.63
2022-09-26T06:28:09.050Z,5.50
2022-09-26T06:30:12.204Z,5.88
2022-09-26T06:32:17.581Z,5.30
2022-09-26T06:34:23.151Z,5.55
2022-09-26T06:38:30.529Z,5.05
2022-09-26T06:40:33.861Z,5.45
2022-09-26T06:42:38.394Z,4.83
2022-09-26T06:44:43.920Z,5.93
2022-09-26T06:46:46.273Z,5.55
2022-09-26T06:48:48.703Z,4.90
2022-09-26T06:50:55.200Z,5.47
2022-09-26T06:52:57.532Z,5.85
2022-09-26T06:55:03.672Z,5.22
2022-09-26T06:57:06.230Z,4.88
2022-09-26T06:59:09.320Z,4.90
2022-09-26T07:01:12.609Z,4.70
2022-09-26T07:03:16.072Z,5.22
2022-09-26T07:05:18.743Z,5.00
2022-09-26T07:07:21.179Z,5.07
2022-09-26T07:09:23.575Z,5.53
2022-09-26T07:11:38.194Z,4.60
2022-09-26T07:13:48.768Z,4.70
2022-09-26T07:15:54.216Z,5.43
2022-09-26T07:18:02.421Z,5.10
2022-09-26T07:20:06.016Z,4.85
2022-09-26T07:22:08.814Z,4.78
2022-09-26T07:24:14.243Z,4.85
2022-09-26T07:26:18.559Z,4.38
2022-09-26T07:28:26.050Z,4.70
2022-09-26T07:30:28.849Z,4.60
2022-09-26T07:32:31.355Z,4.55
2022-09-26T07:34:33.764Z,4.70
2022-09-26T07:36:36.376Z,4.65
2022-09-26T07:38:38.652Z,4.50
2022-09-26T07:40:43.302Z,4.35
2022-09-26T07:43:03.959Z,4.13
2022-09-26T07:45:29.937Z,4.18
2022-09-26T07:47:51.824Z,4.32
2022-09-26T07:50:12.875Z,4.50
2022-09-26T07:52:15.278Z,4.97
2022-09-26T07:54:18.036Z,4.38
2022-09-26T07:56:20.817Z,4.30
2022-09-26T07:58:24.218Z,4.55
2022-09-26T08:00:31.463Z,4.40
2022-09-26T08:02:47.199Z,3.97
2022-09-26T08:04:49.810Z,3.83
2022-09-26T08:06:53.115Z,3.70
2022-09-26T08:08:55.723Z,4.20
2022-09-26T08:11:03.403Z,4.15
2022-09-26T08:13:06.009Z,3.22
2022-09-26T08:15:09.551Z,3.60
2022-09-26T08:17:17.616Z,3.55
2022-09-26T08:19:21.768Z,3.42
2022-09-26T08:21:24.267Z,3.80
2022-09-26T08:23:26.582Z,3.33
2022-09-26T08:25:28.920Z,3.83
2022-09-26T08:27:33.126Z,3.72
2022-09-26T08:29:38.337Z,3.33
2022-09-26T08:31:40.793Z,3.47
2022-09-26T08:33:45.842Z,3.13
2022-09-26T08:35:48.707Z,3.80
2022-09-26T08:38:21.640Z,3.85
2022-09-26T08:40:32.454Z,4.47
2022-09-26T08:42:43.987Z,3.80
2022-09-26T08:45:02.289Z,3.28
2022-09-26T08:47:21.593Z,3.80
2022-09-26T08:49:54.540Z,3.60
2022-09-26T08:51:59.670Z,3.55
2022-09-26T08:54:08.367Z,3.75
2022-09-26T08:56:19.935Z,3.50
2022-09-26T08:58:29.105Z,3.38
2022-09-26T09:00:37.666Z,3.65
2022-09-26T09:02:50.235Z,3.67
2022-09-26T09:05:01.970Z,4.15
2022-09-26T09:07:12.082Z,4.15
2022-09-26T09:09:16.989Z,4.30
2022-09-26T09:11:35.565Z,3.67
2022-09-26T09:13:55.937Z,4.40
2022-09-26T09:16:16.964Z,4.03
2022-09-26T09:18:31.918Z,3.88
2022-09-26T09:20:52.288Z,3.85
2022-09-26T09:23:23.697Z,3.83
2022-09-26T09:25:42.769Z,3.60
2022-09-26T09:28:07.896Z,3.60
2022-09-26T09:30:22.234Z,3.97
2022-09-26T09:32:31.573Z,4.35
2022-09-26T09:34:41.121Z,3.75
2022-09-26T09:36:51.671Z,4.10
2022-09-26T09:39:03.520Z,3.95
2022-09-26T09:41:12.376Z,3.35
2022-09-26T09:43:18.502Z,3.83
2022-09-26T09:45:27.618Z,3.88
2022-09-26T09:47:33.313Z,3.60
2022-09-26T09:49:35.717Z,3.47
2022-09-26T09:51:44.028Z,3.83
2022-09-26T09:54:06.145Z,3.72
2022-09-26T09:56:18.078Z,3.85
2022-09-26T09:58:48.080Z,3.80
2022-09-26T10:01:00.700Z,3.55
2022-09-26T10:03:13.534Z,3.90
2022-09-26T10:05:35.414Z,3.70
2022-09-26T10:07:37.711Z,3.85
2022-09-26T10:09:46.567Z,3.45
2022-09-26T10:11:52.554Z,3.75
2022-09-26T10:14:00.524Z,4.07
2022-09-26T10:16:07.376Z,3.97
2022-09-26T10:18:26.758Z,4.72
2022-09-26T10:20:42.042Z,4.50
2022-09-26T10:22:45.709Z,3.40
2022-09-26T10:24:51.704Z,4.05
2022-09-26T10:26:54.581Z,4.85
2022-09-26T10:28:57.545Z,4.25
2022-09-26T10:31:04.905Z,4.85
2022-09-26T10:33:24.233Z,4.95
2022-09-26T10:35:42.290Z,5.13
2022-09-26T10:37:52.968Z,4.93
2022-09-26T10:40:17.459Z,4.90
2022-09-26T10:42:21.965Z,4.63
2022-09-26T10:44:27.254Z,4.97
2022-09-26T10:46:30.107Z,5.15
2022-09-26T10:48:49.193Z,4.72
2022-09-26T10:50:55.735Z,4.82
2022-09-26T10:53:03.115Z,4.82
2022-09-26T10:55:13.184Z,5.05
2022-09-26T10:57:21.752Z,5.85
2022-09-26T10:59:27.619Z,4.78
2022-09-26T11:01:31.813Z,5.80
2022-09-26T11:05:59.290Z,5.50
2022-09-26T11:08:06.595Z,5.40
2022-09-26T11:10:14.596Z,5.43
2022-09-26T11:12:30.483Z,5.53
2022-09-26T11:14:34.505Z,5.47
2022-09-26T11:16:52.095Z,5.38
2022-09-26T11:19:00.786Z,5.32
2022-09-26T11:21:28.375Z,4.85
2022-09-26T11:23:37.588Z,5.80
2022-09-26T11:25:56.948Z,5.20
2022-09-26T11:28:07.407Z,5.63
2022-09-26T11:30:12.904Z,5.10
2022-09-26T11:32:18.910Z,5.43
2022-09-26T11:34:27.681Z,5.00
2022-09-26T11:36:49.373Z,5.10
2022-09-26T11:38:56.862Z,5.07
2022-09-26T11:41:38.979Z,4.72
2022-09-26T11:43:53.762Z,4.68
2022-09-26T11:48:25.967Z,4.68
2022-09-26T11:50:42.156Z,4.80
2022-09-26T11:53:02.576Z,4.32
2022-09-26T11:55:17.738Z,4.35
2022-09-26T11:57:34.667Z,4.40
2022-09-26T11:59:50.646Z,4.28
2022-09-26T12:02:08.250Z,4.50
2022-09-26T12:04:27.276Z,4.30
2022-09-26T12:06:35.159Z,4.22
2022-09-26T12:09:00.552Z,5.20
2022-09-26T12:11:15.559Z,4.88
2022-09-26T12:13:35.503Z,4.53
2022-09-26T12:15:50.213Z,4.60
2022-09-26T12:18:04.251Z,4.97
2022-09-26T12:20:20.468Z,4.20
2022-09-26T12:22:42.467Z,4.53
2022-09-26T12:24:53.236Z,4.45
2022-09-26T12:27:00.836Z,4.30
2022-09-26T12:29:17.699Z,4.82
2022-09-26T12:31:37.173Z,4.47
2022-09-26T12:33:59.935Z,4.32
2022-09-26T12:36:11.080Z,4.38
2022-09-26T12:38:52.020Z,4.35
2022-09-26T12:41:12.987Z,4.07
2022-09-26T12:43:47.924Z,4.10
2022-09-26T12:46:14.969Z,4.30
2022-09-26T12:48:31.283Z,4.32
2022-09-26T12:50:47.670Z,4.18
2022-09-26T12:53:28.863Z,4.50
2022-09-26T12:55:41.568Z,4.13
2022-09-26T12:58:00.742Z,3.88
2022-09-26T13:00:18.726Z,4.05
2022-09-26T13:02:59.427Z,4.20
2022-09-26T13:05:37.303Z,3.92
2022-09-26T13:07:53.641Z,3.90
2022-09-26T13:10:13.355Z,4.07
2022-09-26T13:12:26.463Z,4.13
2022-09-26T13:15:01.460Z,3.95
2022-09-26T13:17:11.973Z,4.00
2022-09-26T13:19:27.396Z,5.07
2022-09-26T13:21:42.170Z,3.70
2022-09-26T13:25:54.526Z,3.67
2022-09-26T13:28:09.702Z,3.65
2022-09-26T13:30:17.371Z,3.13
2022-09-26T13:32:29.207Z,3.00
2022-09-26T13:34:39.235Z,3.13
2022-09-26T13:36:43.452Z,3.25
2022-09-26T13:41:03.036Z,3.15
2022-09-26T13:43:18.283Z,3.10
2022-09-26T13:45:30.096Z,2.80
2022-09-26T13:47:39.436Z,3.00
2022-09-26T13:49:56.273Z,3.20
2022-09-26T13:52:14.059Z,3.40
2022-09-26T13:54:23.839Z,3.08
2022-09-26T13:56:41.300Z,2.63
2022-09-26T13:58:44.084Z,3.33
2022-09-26T14:00:53.095Z,3.10
2022-09-26T14:03:29.670Z,3.58
2022-09-26T14:05:51.100Z,3.30
2022-09-26T14:08:13.346Z,3.03
2022-09-26T14:10:36.815Z,3.10
2022-09-26T14:13:10.622Z,2.83
2022-09-26T14:15:18.015Z,3.40
2022-09-26T14:18:02.158Z,3.30
2022-09-26T14:20:20.118Z,3.13
2022-09-26T14:22:37.602Z,3.10
2022-09-26T14:24:41.579Z,3.20
2022-09-26T14:26:44.647Z,2.90
2022-09-26T14:28:52.196Z,2.92
2022-09-26T14:31:34.594Z,2.85
2022-09-26T14:33:40.236Z,2.67
2022-09-26T14:35:43.610Z,2.85
2022-09-26T14:37:50.704Z,2.50
2022-09-26T14:40:01.207Z,2.42
2022-09-26T14:42:21.728Z,2.33
2022-09-26T14:44:29.986Z,2.70
2022-09-26T14:46:36.013Z,2.50
2022-09-26T14:48:40.142Z,3.10
2022-09-26T14:50:47.517Z,2.85
2022-09-26T14:52:58.092Z,2.85
2022-09-26T14:55:02.399Z,3.00
2022-09-26T14:57:08.217Z,2.90
2022-09-26T14:59:42.574Z,2.83
2022-09-26T15:01:49.345Z,2.60
2022-09-26T15:03:55.993Z,2.45
2022-09-26T15:05:59.305Z,3.13
2022-09-26T15:08:04.704Z,3.03
2022-09-26T15:10:21.838Z,2.90
2022-09-26T15:12:41.019Z,3.20
2022-09-26T15:14:51.729Z,3.30
2022-09-26T15:16:55.782Z,3.00
2022-09-26T15:19:03.778Z,3.33
2022-09-26T15:21:17.232Z,3.10
2022-09-26T15:23:27.757Z,3.20
2022-09-26T15:25:33.921Z,3.97
2022-09-26T15:28:44.258Z,3.60
2022-09-26T15:30:46.738Z,3.40
2022-09-26T15:32:49.302Z,3.10
2022-09-26T15:34:53.031Z,3.58
2022-09-26T15:36:58.341Z,3.60
2022-09-26T15:39:38.420Z,3.40
2022-09-26T15:42:03.968Z,3.03
2022-09-26T15:44:07.943Z,3.10
2022-09-26T15:46:22.161Z,3.33
2022-09-26T15:48:29.134Z,3.50
2022-09-26T15:50:42.695Z,2.90
2022-09-26T15:52:49.563Z,3.67
2022-09-26T15:54:56.667Z,3.25
2022-09-26T15:57:02.536Z,3.35
2022-09-26T15:59:11.738Z,3.67
2022-09-26T16:01:16.685Z,3.92
2022-09-26T16:03:45.892Z,3.40
2022-09-26T16:05:49.741Z,3.75
2022-09-26T16:07:56.781Z,3.75
2022-09-26T16:10:04.851Z,4.10
2022-09-26T16:12:16.933Z,3.60
2022-09-26T16:14:26.886Z,3.92
2022-09-26T16:16:37.647Z,3.60
2022-09-26T16:18:47.269Z,3.80
2022-09-26T16:20:49.528Z,3.45
2022-09-26T16:22:53.069Z,3.20
2022-09-26T16:25:02.264Z,2.80
2022-09-26T16:27:22.570Z,2.70
2022-09-26T16:29:34.135Z,2.63
2022-09-26T16:31:43.794Z,2.30
2022-09-26T16:33:52.405Z,2.58
2022-09-26T16:35:54.989Z,2.65
2022-09-26T16:37:59.584Z,2.38
2022-09-26T16:40:02.378Z,3.03
2022-09-26T16:42:16.801Z,2.40
2022-09-26T16:44:27.614Z,2.45
2022-09-26T16:46:34.912Z,2.40
2022-09-26T16:48:40.161Z,2.38
2022-09-26T16:50:42.476Z,2.90
2022-09-26T16:52:48.656Z,2.80
2022-09-26T16:54:51.848Z,2.45
2022-09-26T16:56:56.211Z,2.50
2022-09-26T16:59:04.214Z,2.90
2022-09-26T17:01:29.683Z,2.70
2022-09-26T17:03:32.845Z,2.55
2022-09-26T17:05:35.450Z,2.60
2022-09-26T17:07:40.764Z,2.50
2022-09-26T17:09:44.140Z,2.60
2022-09-26T17:11:56.694Z,3.40
2022-09-26T17:14:02.239Z,3.95
2022-09-26T17:16:05.928Z,2.85
2022-09-26T17:18:11.498Z,2.78
2022-09-26T17:20:15.799Z,3.10
2022-09-26T17:22:20.604Z,2.78
2022-09-26T17:24:26.469Z,3.00
2022-09-26T17:26:30.378Z,2.75
2022-09-26T17:28:37.688Z,3.15
2022-09-26T17:30:42.764Z,2.55
2022-09-26T17:32:51.077Z,2.80
2022-09-26T17:34:59.501Z,2.50
2022-09-26T17:37:01.852Z,2.60
2022-09-26T17:39:10.051Z,2.90
2022-09-26T17:41:12.691Z,2.92
2022-09-26T17:43:15.251Z,3.00
2022-09-26T17:45:17.584Z,3.10
2022-09-26T17:47:23.828Z,3.00
2022-09-26T17:49:31.189Z,2.70
2022-09-26T17:51:36.837Z,3.38
2022-09-26T17:53:44.154Z,2.60
2022-09-26T17:55:48.573Z,2.90
2022-09-26T17:57:51.993Z,4.13
2022-09-26T17:59:55.493Z,3.55
2022-09-26T18:02:03.997Z,4.07
2022-09-26T18:04:14.975Z,4.07
2022-09-26T18:06:20.219Z,3.97
2022-09-26T18:08:28.874Z,3.80
2022-09-26T18:10:33.871Z,3.75
2022-09-26T18:12:36.285Z,3.72
2022-09-26T18:14:40.877Z,4.55
2022-09-26T18:16:44.790Z,4.53
2022-09-26T18:18:48.153Z,4.65
2022-09-26T18:20:54.098Z,4.30
2022-09-26T18:22:56.608Z,4.53
2022-09-26T18:25:04.329Z,4.45
2022-09-26T18:27:07.416Z,3.42
2022-09-26T18:29:13.614Z,3.47
2022-09-26T18:31:15.964Z,4.15
2022-09-26T18:33:19.671Z,3.67
2022-09-26T18:35:27.304Z,3.90
2022-09-26T18:37:32.670Z,3.50
2022-09-26T18:39:35.791Z,3.95
2022-09-26T18:41:39.718Z,4.00
2022-09-26T18:43:46.796Z,3.75
2022-09-26T18:45:55.459Z,3.50
2022-09-26T18:47:58.130Z,3.53
2022-09-26T18:50:01.340Z,3.30
2022-09-26T18:52:04.054Z,3.33
2022-09-26T18:54:13.834Z,3.78
2022-09-26T18:56:35.379Z,3.90
2022-09-26T18:58:40.888Z,3.40
2022-09-26T19:00:48.796Z,4.20
2022-09-26T19:02:51.473Z,4.00
2022-09-26T19:04:56.082Z,4.30
2022-09-26T19:07:04.902Z,4.55
2022-09-26T19:09:13.655Z,4.15
2022-09-26T19:11:18.248Z,3.97
2022-09-26T19:13:25.305Z,3.78
2022-09-26T19:15:30.400Z,3.78
2022-09-26T19:17:32.752Z,4.32
2022-09-26T19:19:35.099Z,4.68
2022-09-26T19:21:39.562Z,4.10
2022-09-26T19:23:42.334Z,3.78
2022-09-26T19:25:47.402Z,4.20
2022-09-26T19:27:52.988Z,3.58
2022-09-26T19:29:58.459Z,4.00
2022-09-26T19:32:04.358Z,3.88
2022-09-26T19:34:06.749Z,3.63
2022-09-26T19:36:10.173Z,4.10
2022-09-26T19:38:19.982Z,4.35
2022-09-26T19:40:23.913Z,3.45
2022-09-26T19:42:28.991Z,3.72
2022-09-26T19:44:31.361Z,3.72
2022-09-26T19:46:36.540Z,3.80
2022-09-26T19:48:44.147Z,3.97
2022-09-26T19:50:49.658Z,3.85
2022-09-26T19:52:53.732Z,3.75
2022-09-26T19:56:58.861Z,3.90
2022-09-26T19:59:04.488Z,3.40
2022-09-26T20:01:15.978Z,3.47
2022-09-26T20:03:21.653Z,3.65
2022-09-26T20:05:26.353Z,3.65
2022-09-26T20:07:30.386Z,3.25
2022-09-26T20:09:32.681Z,2.88
2022-09-26T20:11:35.104Z,2.90
2022-09-26T20:13:56.568Z,3.22
2022-09-26T20:16:02.029Z,3.13
2022-09-26T20:18:07.228Z,2.88
2022-09-26T20:20:15.070Z,2.90
2022-09-26T20:22:21.466Z,2.90
2022-09-26T20:24:23.968Z,2.78
2022-09-26T20:26:29.547Z,2.92
2022-09-26T20:28:32.092Z,2.92
2022-09-26T20:30:55.377Z,2.70
2022-09-26T20:33:00.406Z,2.90
2022-09-26T20:35:03.172Z,2.60
2022-09-26T20:37:08.383Z,2.47
2022-09-26T20:39:15.601Z,3.05
2022-09-26T20:41:23.233Z,2.35
2022-09-26T20:43:30.211Z,2.80
2022-09-26T20:45:38.291Z,2.17
2022-09-26T20:47:40.875Z,2.30
2022-09-26T20:49:50.303Z,2.30
2022-09-26T20:51:53.689Z,2.10
2022-09-26T20:53:57.899Z,2.20
2022-09-26T20:58:02.758Z,2.30
2022-09-26T21:00:06.735Z,2.33
2022-09-26T21:02:26.072Z,2.22
2022-09-26T21:04:31.637Z,2.08
2022-09-26T21:06:36.722Z,2.30
2022-09-26T21:08:39.133Z,2.20
2022-09-26T21:10:41.981Z,2.08
2022-09-26T21:12:44.590Z,2.10
2022-09-26T21:14:48.583Z,2.47
2022-09-26T21:16:52.373Z,1.85
2022-09-26T21:18:54.701Z,1.88
2022-09-26T21:21:04.093Z,1.90
2022-09-26T21:23:11.652Z,1.83
2022-09-26T21:25:16.584Z,2.10
2022-09-26T21:27:18.907Z,2.08
2022-09-26T21:29:21.210Z,2.33
2022-09-26T21:31:26.996Z,2.30
2022-09-26T21:33:29.461Z,2.33
2022-09-26T21:35:33.775Z,1.95
2022-09-26T21:39:41.062Z,2.65
2022-09-26T21:41:44.028Z,2.35
2022-09-26T21:43:52.611Z,2.50
2022-09-26T21:45:55.215Z,5.40
2022-09-26T21:47:57.881Z,2.65
2022-09-26T21:50:00.340Z,2.65
2022-09-26T21:52:10.702Z,2.60
2022-09-26T21:54:16.809Z,2.70
2022-09-26T21:56:25.986Z,2.40
2022-09-26T21:58:33.998Z,2.40
2022-09-26T22:00:36.386Z,2.20
2022-09-26T22:02:44.096Z,2.63
2022-09-26T22:04:47.961Z,3.22
2022-09-26T22:06:50.579Z,2.50
2022-09-26T22:08:52.866Z,2.25
2022-09-26T22:10:55.063Z,2.38
2022-09-26T22:13:00.043Z,2.45
2022-09-26T22:15:02.308Z,2.30
2022-09-26T22:17:04.627Z,2.33
2022-09-26T22:19:07.091Z,2.13
2022-09-26T22:21:11.993Z,2.00
2022-09-26T22:23:14.315Z,1.80
2022-09-26T22:25:16.790Z,2.00
2022-09-26T22:27:21.662Z,2.10
2022-09-26T22:29:27.347Z,1.90
2022-09-26T22:31:29.639Z,1.73
2022-09-26T22:33:32.028Z,1.83
2022-09-26T22:35:35.430Z,2.05
2022-09-26T22:37:39.265Z,2.13
2022-09-26T22:39:41.855Z,1.70
2022-09-26T22:41:44.070Z,2.00
2022-09-26T22:43:49.248Z,2.20
2022-09-26T22:46:00.296Z,2.22
2022-09-26T22:48:03.849Z,1.80
2022-09-26T22:50:06.678Z,2.33
2022-09-26T22:52:08.905Z,2.05
2022-09-26T22:54:13.857Z,2.13
2022-09-26T22:56:16.454Z,2.10
2022-09-26T22:58:18.746Z,2.00
2022-09-26T23:00:21.144Z,2.50
2022-09-26T23:02:26.085Z,2.00
2022-09-26T23:04:47.025Z,2.10
2022-09-26T23:06:49.356Z,2.67
2022-09-26T23:08:54.244Z,2.67
2022-09-26T23:10:56.911Z,2.50
2022-09-26T23:12:59.249Z,2.53
2022-09-26T23:15:01.564Z,2.60
2022-09-26T23:17:04.245Z,2.10
2022-09-26T23:19:09.356Z,2.22
2022-09-26T23:21:13.149Z,2.20
2022-09-26T23:23:15.513Z,2.30
2022-09-26T23:25:17.879Z,2.03
2022-09-26T23:27:20.203Z,2.25
2022-09-26T23:29:22.547Z,1.77
2022-09-26T23:31:25.721Z,1.65
2022-09-26T23:33:27.997Z,1.70
2022-09-26T23:35:32.906Z,1.60
2022-09-26T23:37:35.194Z,2.08
2022-09-26T23:39:37.615Z,1.40
2022-09-26T23:41:40.028Z,1.73
2022-09-26T23:43:42.670Z,1.60
2022-09-26T23:45:46.027Z,1.77
2022-09-26T23:47:49.286Z,1.75
2022-09-26T23:49:51.686Z,1.52
2022-09-26T23:51:56.663Z,1.45
2022-09-26T23:53:58.943Z,1.40
2022-09-26T23:56:04.779Z,1.40
2022-09-26T23:58:07.040Z,1.88
